Terminal Aerodrome Forecast
Issued by NWS Midland/Odessa, TX

Current Version | Previous Version | Text Only | Print | Product List | Glossary On
Versions: 1 2 3 4 5 6 7 8 9 10 11 12 13 14 15 16 17
000
FTUS44 KMAF 041907 AAB
TAFMAF
TAF AMD
KMAF 041907Z 0419/0518 01006KT P6SM SKC
     FM050200 16005KT P6SM SKC
     FM051200 18007KT P6SM SKC=

USA.gov is the U.S. government's official web portal to all federal, state and local government web resources and services.